Time;durP1;ratioP1;P1;durP2;ratioP2;P2;SDS_P1;SDS_P2;PMS_P1;PMS_P2;Temp;Humidity;BMP_temperature;BMP_pressure;BME280_temperature;BME280_humidity;BME280_pressure;Samples;Min_cycle;Max_cycle;Signal;HPM_P1;HPM_P2
2021/04/10 00:00:32;;;;;;;34.05;21.75;;;7.90;99.90;;;;;;4970470;28;20041;-58
2021/04/10 00:02:58;;;;;;;32.67;22.50;;;7.90;99.90;;;;;;4966456;28;20093;-62
2021/04/10 00:05:25;;;;;;;37.42;21.52;;;7.80;99.90;;;;;;4969898;28;20037;-59
2021/04/10 00:07:52;;;;;;;37.17;24.30;;;7.80;99.90;;;;;;4950379;28;20066;-60
2021/04/10 00:10:18;;;;;;;36.85;23.10;;;7.80;99.90;;;;;;4965195;28;20047;-60
2021/04/10 00:12:44;;;;;;;34.03;23.50;;;7.80;99.90;;;;;;4968094;28;20113;-58
2021/04/10 00:15:14;;;;;;;36.60;24.90;;;7.80;99.90;;;;;;4967843;28;20123;-58
2021/04/10 00:17:39;;;;;;;38.33;22.90;;;7.80;99.90;;;;;;4964535;28;20030;-58
2021/04/10 00:20:08;;;;;;;33.97;24.08;;;7.80;99.90;;;;;;4971565;28;20037;-58
2021/04/10 00:22:33;;;;;;;37.28;24.58;;;7.80;99.90;;;;;;4983248;28;20050;-58
2021/04/10 00:24:59;;;;;;;36.72;24.90;;;7.70;99.90;;;;;;4962880;28;20052;-57
2021/04/10 00:27:24;;;;;;;37.17;25.10;;;7.70;99.90;;;;;;4970795;28;20022;-59
2021/04/10 00:29:50;;;;;;;37.30;24.40;;;7.70;99.90;;;;;;4961250;28;20031;-56
2021/04/10 00:32:15;;;;;;;38.47;24.90;;;7.70;99.90;;;;;;4963012;28;20054;-58
2021/04/10 00:34:41;;;;;;;33.30;23.77;;;7.70;99.90;;;;;;4965805;28;20078;-58
2021/04/10 00:37:06;;;;;;;41.25;26.63;;;7.70;99.90;;;;;;4966119;28;20078;-58
2021/04/10 00:39:32;;;;;;;36.88;25.40;;;7.70;99.90;;;;;;4947406;28;20042;-57
2021/04/10 00:41:57;;;;;;;39.92;26.58;;;7.70;99.90;;;;;;4963820;28;20026;-58
2021/04/10 00:44:23;;;;;;;39.40;26.83;;;7.70;99.90;;;;;;4946803;28;20035;-56
2021/04/10 00:46:49;;;;;;;39.00;25.58;;;7.70;99.90;;;;;;4990359;28;20030;-56
2021/04/10 00:49:14;;;;;;;38.75;26.67;;;7.70;99.90;;;;;;4992955;28;20035;-56
2021/04/10 00:51:40;;;;;;;42.10;27.42;;;7.70;99.90;;;;;;4991337;28;20030;-58
2021/04/10 00:54:06;;;;;;;44.60;26.90;;;7.70;99.90;;;;;;5000011;28;20092;-58
2021/04/10 00:56:31;;;;;;;46.83;27.52;;;7.70;99.90;;;;;;4996232;28;20030;-58
2021/04/10 00:58:57;;;;;;;44.47;28.30;;;7.70;99.90;;;;;;4990549;28;20037;-57
2021/04/10 01:01:23;;;;;;;40.15;26.27;;;7.60;99.90;;;;;;4993509;28;20439;-58
2021/04/10 01:03:49;;;;;;;37.65;26.65;;;7.70;99.90;;;;;;4996125;28;20084;-59
2021/04/10 01:06:15;;;;;;;53.50;30.25;;;7.70;99.90;;;;;;4987942;28;20476;-58
2021/04/10 01:08:40;;;;;;;66.85;29.55;;;7.60;99.90;;;;;;4985481;28;20496;-58
2021/04/10 01:11:12;;;;;;;49.63;29.35;;;7.60;99.90;;;;;;4994985;28;20488;-55
2021/04/10 01:14:07;;;;;;;52.75;31.08;;;7.70;99.90;;;;;;4999701;28;20072;-57
2021/04/10 01:16:39;;;;;;;135.80;31.75;;;7.60;99.90;;;;;;4966718;28;20046;-57
2021/04/10 01:19:42;;;;;;;341.60;37.63;;;7.70;99.90;;;;;;4993134;28;20034;-57
2021/04/10 01:22:51;;;;;;;273.65;36.88;;;7.70;99.90;;;;;;4989831;28;20049;-57
2021/04/10 01:25:47;;;;;;;169.85;32.95;;;7.70;99.90;;;;;;4943420;28;20716;-56
2021/04/10 01:28:25;;;;;;;131.77;31.65;;;7.60;99.90;;;;;;4986851;28;20495;-56
2021/04/10 01:30:51;;;;;;;56.85;28.63;;;7.60;99.90;;;;;;4999998;28;20525;-57
2021/04/10 01:33:19;;;;;;;40.10;27.30;;;7.60;99.90;;;;;;4982486;28;20058;-57
2021/04/10 01:35:52;;;;;;;48.67;30.35;;;7.60;99.90;;;;;;4994332;28;20069;-58
2021/04/10 01:38:19;;;;;;;41.45;26.42;;;7.50;99.90;;;;;;4995429;28;20109;-58
2021/04/10 01:40:49;;;;;;;46.92;29.50;;;7.60;99.90;;;;;;4981635;28;20054;-57
2021/04/10 01:43:15;;;;;;;44.10;27.13;;;7.50;99.90;;;;;;4988431;28;20026;-59
2021/04/10 01:45:41;;;;;;;44.13;28.48;;;7.50;99.90;;;;;;4971481;28;20054;-59
2021/04/10 01:48:11;;;;;;;38.78;26.83;;;7.50;99.90;;;;;;4990957;28;20038;-59
2021/04/10 01:50:38;;;;;;;42.40;29.30;;;7.50;99.90;;;;;;4996155;28;20038;-57
2021/04/10 01:53:05;;;;;;;43.10;28.00;;;7.50;99.90;;;;;;4994686;28;20105;-59
2021/04/10 01:55:31;;;;;;;44.78;27.13;;;7.40;99.90;;;;;;4995820;28;20033;-57
2021/04/10 01:57:58;;;;;;;39.63;26.50;;;7.40;99.90;;;;;;4985373;28;20034;-58
2021/04/10 02:00:26;;;;;;;50.97;28.88;;;7.40;99.90;;;;;;4990664;28;20037;-57
2021/04/10 02:02:53;;;;;;;44.75;28.80;;;7.40;99.90;;;;;;4992972;28;20026;-58
2021/04/10 02:05:19;;;;;;;39.58;27.40;;;7.40;99.90;;;;;;4993398;28;20072;-58
2021/04/10 02:07:47;;;;;;;38.85;26.42;;;7.40;99.90;;;;;;4986039;28;20022;-57
2021/04/10 02:10:22;;;;;;;41.30;26.05;;;7.40;99.90;;;;;;4990329;28;20027;-59
2021/04/10 02:12:51;;;;;;;48.75;27.02;;;7.40;99.90;;;;;;4986133;28;20023;-59
2021/04/10 02:15:17;;;;;;;43.40;26.63;;;7.40;99.90;;;;;;4989502;28;20026;-58
2021/04/10 02:17:43;;;;;;;42.25;27.10;;;7.40;99.90;;;;;;4990762;28;20023;-57
2021/04/10 02:20:12;;;;;;;44.20;26.67;;;7.40;99.90;;;;;;4976805;28;548605;-59
2021/04/10 02:22:44;;;;;;;44.78;29.73;;;7.30;99.90;;;;;;4996692;28;20112;-59
2021/04/10 02:25:11;;;;;;;40.47;25.95;;;7.30;99.90;;;;;;4996906;28;20042;-57
2021/04/10 02:27:38;;;;;;;39.55;26.20;;;7.40;99.90;;;;;;5000665;28;20077;-58
2021/04/10 02:30:06;;;;;;;40.88;26.10;;;7.40;99.90;;;;;;4995993;28;20042;-57
2021/04/10 02:32:47;;;;;;;39.38;26.05;;;7.30;99.90;;;;;;4998426;28;20076;-54
2021/04/10 02:35:14;;;;;;;42.60;27.33;;;7.30;99.90;;;;;;4999056;28;20049;-54
2021/04/10 02:37:42;;;;;;;40.55;27.05;;;7.30;99.90;;;;;;4993634;28;20105;-58
2021/04/10 02:40:10;;;;;;;49.45;29.05;;;7.30;99.90;;;;;;4980919;28;20042;-59
2021/04/10 02:42:42;;;;;;;43.08;27.75;;;7.30;99.90;;;;;;4997988;28;20030;-58
2021/04/10 02:45:09;;;;;;;37.90;26.02;;;7.30;99.90;;;;;;4995388;28;20030;-57
2021/04/10 02:47:36;;;;;;;42.70;26.55;;;7.30;99.90;;;;;;5000378;28;20030;-58
2021/04/10 02:50:04;;;;;;;47.53;28.00;;;7.20;99.90;;;;;;4996711;28;20034;-54
2021/04/10 02:52:34;;;;;;;49.88;28.00;;;7.20;99.90;;;;;;5001110;28;20101;-57
2021/04/10 02:55:02;;;;;;;45.63;27.95;;;7.20;99.90;;;;;;5000965;28;20083;-57
2021/04/10 02:57:29;;;;;;;40.75;27.08;;;7.30;99.90;;;;;;4992150;28;20038;-56
2021/04/10 02:59:58;;;;;;;42.95;27.63;;;7.30;99.90;;;;;;4994739;28;20037;-58
2021/04/10 03:02:24;;;;;;;39.03;26.00;;;7.30;99.90;;;;;;5002628;28;20031;-57
2021/04/10 03:04:51;;;;;;;42.45;27.05;;;7.30;99.90;;;;;;4992772;28;20578;-58
2021/04/10 03:07:18;;;;;;;38.70;25.63;;;7.30;99.90;;;;;;4997692;28;20156;-53
2021/04/10 03:09:46;;;;;;;38.83;25.83;;;7.30;99.90;;;;;;4992725;28;20105;-57
2021/04/10 03:12:16;;;;;;;39.45;26.45;;;7.30;99.90;;;;;;4999568;28;20041;-53
2021/04/10 03:14:43;;;;;;;41.10;25.13;;;7.30;99.90;;;;;;4987743;28;20034;-56
2021/04/10 03:17:13;;;;;;;39.47;25.65;;;7.30;99.90;;;;;;5000572;28;20427;-59
2021/04/10 03:19:41;;;;;;;39.55;25.83;;;7.30;99.90;;;;;;4996546;28;20047;-56
2021/04/10 03:22:08;;;;;;;34.20;23.35;;;7.30;99.90;;;;;;4992142;28;20103;-55
2021/04/10 03:24:33;;;;;;;36.10;25.05;;;7.30;99.90;;;;;;4995954;28;20107;-58
2021/04/10 03:26:59;;;;;;;34.60;23.08;;;7.30;99.90;;;;;;4994443;28;20114;-58
2021/04/10 03:29:26;;;;;;;39.83;24.60;;;7.30;99.90;;;;;;4991623;28;20448;-57
2021/04/10 03:31:51;;;;;;;32.03;22.83;;;7.30;99.90;;;;;;5001174;28;20542;-58
2021/04/10 03:34:18;;;;;;;35.38;23.83;;;7.30;99.90;;;;;;5002666;28;20034;-57
2021/04/10 03:36:44;;;;;;;39.53;25.60;;;7.30;99.90;;;;;;5001025;28;20113;-57
2021/04/10 03:39:10;;;;;;;38.85;24.40;;;7.30;99.90;;;;;;4998089;28;20570;-59
2021/04/10 03:41:35;;;;;;;37.80;24.13;;;7.30;99.90;;;;;;4987636;28;20141;-57
2021/04/10 03:44:01;;;;;;;38.85;26.02;;;7.30;99.90;;;;;;4999904;28;20030;-57
2021/04/10 03:46:27;;;;;;;42.75;26.05;;;7.30;99.90;;;;;;4997944;28;20030;-57
2021/04/10 03:48:52;;;;;;;46.45;26.58;;;7.30;99.90;;;;;;4991703;28;20037;-60
2021/04/10 03:51:18;;;;;;;39.95;26.38;;;7.30;99.90;;;;;;4999609;28;20036;-57
2021/04/10 03:53:43;;;;;;;41.45;26.42;;;7.30;99.90;;;;;;4992566;28;20030;-55
2021/04/10 03:56:10;;;;;;;48.15;26.88;;;7.30;99.90;;;;;;5002979;28;20037;-58
2021/04/10 03:58:35;;;;;;;42.92;27.20;;;7.40;99.90;;;;;;5003386;28;20030;-57
2021/04/10 04:01:01;;;;;;;54.70;27.00;;;7.30;99.90;;;;;;5000741;28;20391;-56
2021/04/10 04:03:26;;;;;;;46.95;27.58;;;7.30;99.90;;;;;;4997358;28;20046;-56
2021/04/10 04:05:52;;;;;;;45.80;27.70;;;7.30;99.90;;;;;;5000006;28;20034;-60
2021/04/10 04:08:17;;;;;;;42.83;27.05;;;7.30;99.90;;;;;;4996619;28;20082;-58
2021/04/10 04:10:43;;;;;;;42.55;27.20;;;7.30;99.90;;;;;;4997444;28;20113;-58
2021/04/10 04:13:08;;;;;;;48.22;26.88;;;7.30;99.90;;;;;;4992765;28;20042;-57
2021/04/10 04:15:34;;;;;;;50.28;29.00;;;7.30;99.90;;;;;;4997339;28;20057;-57
2021/04/10 04:18:00;;;;;;;52.97;31.50;;;7.30;99.90;;;;;;4996417;28;20105;-57
2021/04/10 04:20:25;;;;;;;59.72;32.85;;;7.20;99.90;;;;;;4993935;28;20041;-59
2021/04/10 04:22:51;;;;;;;58.65;32.67;;;7.20;99.90;;;;;;4990302;28;20457;-57
2021/04/10 04:25:17;;;;;;;56.72;32.55;;;7.20;99.90;;;;;;4999632;28;20411;-57
2021/04/10 04:27:43;;;;;;;61.58;36.72;;;7.10;99.90;;;;;;5000853;28;20035;-58
2021/04/10 04:30:09;;;;;;;59.53;34.92;;;7.10;99.90;;;;;;4992513;28;20038;-57
2021/04/10 04:32:35;;;;;;;62.63;34.53;;;7.10;99.90;;;;;;4995869;28;20045;-57
2021/04/10 04:35:00;;;;;;;61.03;35.53;;;7.10;99.90;;;;;;4990756;28;20042;-56
2021/04/10 04:37:26;;;;;;;52.67;31.63;;;7.10;99.90;;;;;;4993383;28;20045;-57
2021/04/10 04:39:52;;;;;;;62.20;34.38;;;7.10;99.90;;;;;;4991361;28;20109;-58
2021/04/10 04:42:17;;;;;;;50.95;30.90;;;7.20;99.90;;;;;;4974819;28;20061;-50
2021/04/10 04:44:44;;;;;;;48.58;30.42;;;7.20;99.90;;;;;;4997223;28;20037;-53
2021/04/10 04:47:10;;;;;;;52.70;30.58;;;7.20;99.90;;;;;;4992273;28;20034;-57
2021/04/10 04:49:35;;;;;;;64.43;33.88;;;7.10;99.90;;;;;;4994506;28;20087;-58
2021/04/10 04:52:01;;;;;;;56.28;35.15;;;7.10;99.90;;;;;;4993693;28;20107;-57
2021/04/10 04:54:26;;;;;;;56.80;33.70;;;7.10;99.90;;;;;;4996118;28;20155;-58
2021/04/10 04:56:52;;;;;;;55.92;34.83;;;7.20;99.90;;;;;;4999596;28;20030;-54
2021/04/10 04:59:17;;;;;;;242.13;38.85;;;7.20;99.90;;;;;;5002149;28;20026;-57
2021/04/10 05:01:43;;;;;;;335.58;42.10;;;7.20;99.90;;;;;;4994086;28;20057;-58
2021/04/10 05:04:09;;;;;;;333.08;41.35;;;7.30;99.90;;;;;;4990140;28;20038;-58
2021/04/10 05:06:34;;;;;;;117.10;36.22;;;7.20;99.90;;;;;;4990468;28;20476;-57
2021/04/10 05:09:00;;;;;;;75.63;36.83;;;7.20;99.90;;;;;;4993172;28;20445;-57
2021/04/10 05:11:26;;;;;;;88.82;37.42;;;7.20;99.90;;;;;;5001951;28;20033;-57
2021/04/10 05:13:51;;;;;;;91.57;38.13;;;7.30;99.90;;;;;;4993569;28;20033;-51
2021/04/10 05:16:17;;;;;;;113.68;37.15;;;7.30;99.90;;;;;;4999475;28;20116;-58
2021/04/10 05:18:43;;;;;;;115.05;35.78;;;7.20;99.90;;;;;;4994183;28;20117;-56
2021/04/10 05:21:08;;;;;;;142.38;39.53;;;7.30;99.90;;;;;;4991686;28;20510;-56
2021/04/10 05:23:34;;;;;;;81.63;36.00;;;7.30;99.90;;;;;;4984168;28;20026;-58
2021/04/10 05:25:59;;;;;;;60.90;35.15;;;7.30;99.90;;;;;;4985914;28;20201;-58
2021/04/10 05:28:25;;;;;;;74.30;36.45;;;7.40;99.90;;;;;;4985099;28;20034;-55
2021/04/10 05:30:50;;;;;;;66.68;37.50;;;7.40;99.90;;;;;;4988971;28;20038;-58
2021/04/10 05:33:16;;;;;;;73.90;37.60;;;7.40;99.90;;;;;;4986438;28;20050;-57
2021/04/10 05:35:42;;;;;;;61.92;36.58;;;7.40;99.90;;;;;;4985246;28;20133;-57
2021/04/10 05:38:07;;;;;;;59.45;36.22;;;7.40;99.90;;;;;;4988351;28;20041;-57
2021/04/10 05:40:33;;;;;;;61.60;35.92;;;7.50;99.90;;;;;;4986557;28;20030;-58
2021/04/10 05:42:59;;;;;;;57.63;35.08;;;7.50;99.90;;;;;;4982714;28;20042;-58
2021/04/10 05:45:25;;;;;;;54.75;35.03;;;7.60;99.90;;;;;;4989894;28;20030;-56
2021/04/10 05:47:50;;;;;;;55.70;35.38;;;7.60;99.90;;;;;;4996162;28;20104;-58
2021/04/10 05:50:16;;;;;;;59.25;35.85;;;7.60;99.90;;;;;;4995022;28;20423;-57
2021/04/10 05:52:41;;;;;;;57.97;36.60;;;7.60;99.90;;;;;;4998031;28;20022;-59
2021/04/10 05:55:08;;;;;;;56.88;34.53;;;7.60;99.90;;;;;;4996763;28;20034;-58
2021/04/10 05:57:34;;;;;;;56.67;35.10;;;7.60;99.90;;;;;;4998943;28;20076;-56
2021/04/10 05:59:59;;;;;;;54.25;35.72;;;7.60;99.90;;;;;;4998180;28;20065;-59
2021/04/10 06:02:25;;;;;;;51.67;34.30;;;7.60;99.90;;;;;;4998291;28;20018;-58
2021/04/10 06:04:51;;;;;;;57.03;34.75;;;7.60;99.90;;;;;;4996214;28;20135;-59
2021/04/10 06:07:18;;;;;;;53.35;36.05;;;7.70;99.90;;;;;;4994041;28;20037;-57
2021/04/10 06:09:43;;;;;;;48.97;33.42;;;7.60;99.90;;;;;;4997680;28;20625;-59
2021/04/10 06:12:09;;;;;;;49.17;33.25;;;7.70;99.90;;;;;;4993847;28;20034;-59
2021/04/10 06:14:35;;;;;;;45.65;32.13;;;7.70;99.90;;;;;;4991517;28;20113;-59
2021/04/10 06:17:01;;;;;;;52.13;32.80;;;7.80;99.90;;;;;;4999217;28;20117;-58
2021/04/10 06:19:26;;;;;;;44.03;29.80;;;7.80;99.90;;;;;;4990070;28;20065;-57
2021/04/10 06:21:52;;;;;;;42.25;29.80;;;7.90;99.90;;;;;;4994172;28;20554;-57
2021/04/10 06:24:18;;;;;;;45.38;29.67;;;8.00;99.90;;;;;;4991109;28;20030;-58
2021/04/10 06:26:45;;;;;;;45.38;30.13;;;7.90;99.90;;;;;;5004117;28;20026;-59
2021/04/10 06:29:11;;;;;;;40.88;28.02;;;8.00;99.90;;;;;;4991067;28;20471;-58
2021/04/10 06:31:38;;;;;;;38.13;27.88;;;8.10;99.90;;;;;;5002820;28;20034;-59
2021/04/10 06:34:03;;;;;;;39.33;25.58;;;8.10;99.90;;;;;;4987881;28;20113;-58
2021/04/10 06:36:29;;;;;;;37.75;25.33;;;8.30;99.90;;;;;;4989673;28;20113;-57
2021/04/10 06:38:55;;;;;;;33.38;25.13;;;8.30;99.90;;;;;;4992546;28;20053;-58
2021/04/10 06:41:21;;;;;;;34.30;24.83;;;8.40;99.90;;;;;;4977357;28;20030;-59
2021/04/10 06:43:47;;;;;;;36.72;25.27;;;8.50;99.90;;;;;;4995778;28;20515;-59
2021/04/10 06:46:13;;;;;;;32.80;24.00;;;8.60;99.90;;;;;;4998640;28;20037;-57
2021/04/10 06:48:40;;;;;;;33.95;24.45;;;8.70;99.90;;;;;;4994667;28;20071;-59
2021/04/10 06:51:07;;;;;;;35.70;23.20;;;8.80;99.90;;;;;;4999421;28;20078;-59
2021/04/10 06:53:37;;;;;;;32.83;23.55;;;8.80;99.90;;;;;;4990101;28;20045;-58
2021/04/10 06:56:05;;;;;;;35.17;24.95;;;8.90;99.90;;;;;;4995819;28;20068;-59
2021/04/10 06:58:52;;;;;;;34.97;23.45;;;8.90;99.90;;;;;;4997471;28;20117;-58
2021/04/10 07:01:19;;;;;;;31.27;22.73;;;9.00;99.90;;;;;;4992691;28;20552;-59
2021/04/10 07:03:45;;;;;;;34.47;21.73;;;9.10;99.90;;;;;;4993854;28;20480;-58
2021/04/10 07:06:11;;;;;;;34.03;21.50;;;9.20;99.90;;;;;;5004092;28;20095;-58
2021/04/10 07:08:37;;;;;;;30.00;20.60;;;9.40;99.90;;;;;;4995333;28;20046;-58
2021/04/10 07:11:04;;;;;;;28.90;20.67;;;9.40;99.90;;;;;;5002901;28;20030;-59
2021/04/10 07:13:31;;;;;;;32.17;20.70;;;9.40;99.90;;;;;;4997719;28;20041;-59
2021/04/10 07:16:01;;;;;;;25.65;18.85;;;9.40;99.90;;;;;;5003306;28;20033;-59
2021/04/10 07:18:28;;;;;;;33.80;21.70;;;9.30;99.90;;;;;;4999278;28;20026;-59
2021/04/10 07:21:13;;;;;;;23.77;17.58;;;9.40;99.90;;;;;;4997753;28;20026;-58
2021/04/10 07:24:01;;;;;;;22.23;17.38;;;9.60;99.90;;;;;;4992432;28;20058;-57
2021/04/10 07:26:54;;;;;;;28.38;19.77;;;9.60;99.90;;;;;;4992759;28;20042;-56
2021/04/10 07:29:58;;;;;;;27.23;18.40;;;9.60;99.90;;;;;;4992442;28;20026;-59
2021/04/10 07:32:33;;;;;;;31.05;18.63;;;9.80;99.90;;;;;;4995332;28;20030;-59
2021/04/10 07:35:07;;;;;;;26.55;18.48;;;10.00;99.90;;;;;;4992435;28;20534;-58
2021/04/10 07:37:40;;;;;;;;;;;10.00;99.90;;;;;;5000825;28;20038;-59
2021/04/10 07:40:32;;;;;;;22.90;16.02;;;10.10;99.90;;;;;;4995045;28;20446;-58
2021/04/10 07:43:02;;;;;;;21.42;16.20;;;10.30;99.90;;;;;;4974903;28;20647;-58
2021/04/10 07:45:33;;;;;;;27.55;16.23;;;10.40;99.90;;;;;;4999950;28;20557;-57
2021/04/10 07:48:04;;;;;;;22.70;16.13;;;10.40;99.90;;;;;;4989856;28;20526;-58
2021/04/10 07:50:33;;;;;;;21.80;15.32;;;10.60;99.90;;;;;;5002201;28;20154;-59
2021/04/10 07:53:19;;;;;;;21.08;14.80;;;10.90;99.90;;;;;;4998872;28;20026;-59
2021/04/10 07:55:44;;;;;;;19.58;15.55;;;10.80;99.90;;;;;;4996025;28;20022;-59
2021/04/10 07:58:26;;;;;;;19.52;14.90;;;10.80;99.90;;;;;;5001518;28;20741;-58
2021/04/10 08:01:01;;;;;;;19.60;14.93;;;11.10;99.90;;;;;;4998403;28;20030;-59
2021/04/10 08:03:32;;;;;;;22.35;13.68;;;11.30;99.90;;;;;;4997154;28;20077;-59
2021/04/10 08:06:07;;;;;;;18.00;12.85;;;11.60;99.90;;;;;;4994512;28;20030;-57
2021/04/10 08:08:56;;;;;;;18.27;12.93;;;12.00;99.90;;;;;;4987683;28;20480;-58
2021/04/10 08:11:41;;;;;;;16.95;12.30;;;12.00;99.90;;;;;;4993841;28;20040;-60
2021/04/10 08:14:07;;;;;;;16.08;12.68;;;12.00;99.90;;;;;;4992803;28;20565;-59
2021/04/10 08:16:38;;;;;;;13.55;10.98;;;12.10;99.90;;;;;;5002867;28;20116;-59
2021/04/10 08:19:03;;;;;;;14.50;11.45;;;12.20;99.90;;;;;;4992189;28;20026;-56
2021/04/10 08:21:34;;;;;;;15.80;11.98;;;12.30;99.90;;;;;;4996824;28;20103;-55
2021/04/10 08:24:01;;;;;;;16.55;10.98;;;12.30;99.90;;;;;;4993821;28;20038;-58
2021/04/10 08:26:28;;;;;;;14.07;9.93;;;12.60;99.90;;;;;;5003203;28;20041;-59
2021/04/10 08:28:54;;;;;;;16.98;11.20;;;12.50;99.90;;;;;;4994496;28;20031;-59
2021/04/10 08:31:20;;;;;;;13.15;10.80;;;12.50;99.90;;;;;;4999339;28;20479;-59
2021/04/10 08:33:46;;;;;;;13.80;10.65;;;12.20;99.90;;;;;;4996056;28;20030;-59
2021/04/10 08:36:12;;;;;;;14.77;11.73;;;12.70;99.90;;;;;;4999350;28;20034;-59
2021/04/10 08:38:39;;;;;;;15.85;11.23;;;12.90;99.90;;;;;;4994896;28;20034;-59
2021/04/10 08:41:07;;;;;;;14.68;10.45;;;12.90;99.90;;;;;;5003188;28;20117;-57
2021/04/10 08:43:49;;;;;;;14.52;11.30;;;12.80;99.90;;;;;;4982059;28;20038;-58
2021/04/10 08:46:18;;;;;;;15.57;10.40;;;12.80;99.90;;;;;;4983612;28;20029;-59
2021/04/10 08:48:46;;;;;;;13.32;10.70;;;13.10;99.90;;;;;;4998408;28;20034;-60
2021/04/10 08:51:15;;;;;;;11.55;9.80;;;13.30;99.90;;;;;;4992997;28;20033;-58
2021/04/10 08:53:46;;;;;;;13.32;10.27;;;13.60;99.90;;;;;;5006788;28;20054;-58
2021/04/10 08:56:13;;;;;;;11.95;9.23;;;13.60;99.90;;;;;;5007786;28;20480;-60
2021/04/10 08:58:42;;;;;;;12.93;9.75;;;13.80;99.90;;;;;;5006223;28;20563;-61
2021/04/10 09:01:10;;;;;;;14.15;9.00;;;13.90;99.90;;;;;;5000221;28;20582;-58
2021/04/10 09:03:45;;;;;;;14.18;10.05;;;13.90;99.90;;;;;;4990751;28;20037;-59
2021/04/10 09:06:29;;;;;;;13.40;9.55;;;13.80;99.90;;;;;;5001358;28;20026;-59
2021/04/10 09:09:14;;;;;;;14.30;8.65;;;13.70;99.90;;;;;;4994031;28;20036;-58
2021/04/10 09:11:44;;;;;;;13.15;9.13;;;13.90;99.90;;;;;;4997773;28;20411;-58
2021/04/10 09:14:13;;;;;;;12.60;10.13;;;13.80;99.90;;;;;;4994753;28;20422;-59
2021/04/10 09:16:51;;;;;;;14.95;12.60;;;13.80;99.90;;;;;;5001614;28;20109;-59
2021/04/10 09:19:19;;;;;;;14.73;9.93;;;13.30;99.90;;;;;;4988146;28;20030;-51
2021/04/10 09:21:55;;;;;;;11.82;9.40;;;13.40;99.90;;;;;;4999411;28;20438;-60
2021/04/10 09:24:42;;;;;;;13.32;8.90;;;13.50;99.90;;;;;;4989696;28;20090;-59
2021/04/10 09:27:21;;;;;;;10.15;8.98;;;13.40;99.90;;;;;;5002952;28;20023;-58
2021/04/10 09:30:02;;;;;;;11.55;8.60;;;13.50;99.90;;;;;;4986992;28;20081;-59
2021/04/10 09:32:44;;;;;;;9.93;8.82;;;13.60;99.90;;;;;;5000381;28;20042;-58
2021/04/10 09:35:17;;;;;;;12.18;8.63;;;13.70;99.90;;;;;;4990021;28;20045;-58
2021/04/10 09:37:43;;;;;;;14.30;9.87;;;13.80;99.90;;;;;;4991387;28;20113;-57
2021/04/10 09:40:17;;;;;;;12.35;9.18;;;13.70;99.90;;;;;;4994562;28;20880;-58
2021/04/10 09:43:03;;;;;;;17.30;10.90;;;13.50;99.90;;;;;;4971809;28;20109;-59
2021/04/10 09:45:31;;;;;;;25.25;15.40;;;13.80;99.90;;;;;;4997666;28;20030;-60
2021/04/10 09:47:58;;;;;;;12.75;9.80;;;13.90;99.90;;;;;;4998891;28;20037;-59
2021/04/10 09:50:34;;;;;;;9.32;7.25;;;14.00;99.90;;;;;;4998878;28;20071;-59
2021/04/10 09:53:24;;;;;;;12.60;8.48;;;13.90;99.90;;;;;;5000193;28;20076;-58
2021/04/10 09:56:00;;;;;;;14.05;8.25;;;14.20;99.90;;;;;;4959776;28;20083;-58
2021/04/10 09:58:32;;;;;;;17.70;10.40;;;14.00;99.90;;;;;;4988118;28;20022;-58
2021/04/10 10:01:04;;;;;;;34.83;21.45;;;13.90;99.90;;;;;;4993343;28;20492;-58
2021/04/10 10:03:30;;;;;;;38.67;22.10;;;13.60;99.90;;;;;;5003093;28;20046;-59
2021/04/10 10:05:56;;;;;;;10.80;7.75;;;13.50;99.90;;;;;;4999260;28;20484;-57
2021/04/10 10:08:27;;;;;;;9.85;8.23;;;13.50;99.90;;;;;;4992843;28;20033;-59
2021/04/10 10:10:55;;;;;;;9.88;7.88;;;13.60;99.90;;;;;;4998456;28;20030;-59
2021/04/10 10:13:31;;;;;;;14.75;11.10;;;13.50;99.90;;;;;;4996619;28;20038;-59
2021/04/10 10:15:56;;;;;;;25.02;15.95;;;13.60;99.90;;;;;;4989981;28;20030;-60
2021/04/10 10:18:25;;;;;;;12.45;8.93;;;13.50;99.90;;;;;;4984218;28;20054;-58
2021/04/10 10:21:10;;;;;;;10.85;8.80;;;13.60;99.90;;;;;;4978390;28;20031;-58
2021/04/10 10:23:39;;;;;;;13.95;9.70;;;13.30;99.90;;;;;;4978781;28;20022;-57
2021/04/10 10:26:10;;;;;;;16.42;10.73;;;13.10;99.90;;;;;;4981689;28;20023;-59
2021/04/10 10:28:38;;;;;;;11.40;8.68;;;12.80;99.90;;;;;;4988047;28;20453;-60
2021/04/10 10:31:20;;;;;;;10.30;8.25;;;12.70;99.90;;;;;;4993120;28;20030;-58
2021/04/10 10:33:46;;;;;;;11.27;8.90;;;12.50;99.90;;;;;;4992391;28;20042;-56
2021/04/10 10:36:14;;;;;;;12.68;9.88;;;12.30;99.90;;;;;;4994048;28;20032;-56
2021/04/10 10:38:42;;;;;;;15.25;11.80;;;12.00;99.90;;;;;;4988195;28;20033;-57
2021/04/10 10:41:09;;;;;;;17.88;12.05;;;11.70;99.90;;;;;;4992957;28;20096;-57
2021/04/10 10:43:36;;;;;;;16.13;12.13;;;11.50;99.90;;;;;;4992615;28;20154;-58
2021/04/10 10:46:17;;;;;;;17.45;12.23;;;11.40;99.90;;;;;;4996168;28;20042;-59
2021/04/10 10:48:43;;;;;;;22.75;14.30;;;11.20;99.90;;;;;;4994489;28;20053;-54
2021/04/10 10:51:15;;;;;;;19.08;13.40;;;11.00;99.90;;;;;;4997085;28;20029;-58
2021/04/10 10:53:43;;;;;;;26.85;13.95;;;10.90;99.90;;;;;;4993996;28;20559;-57
2021/04/10 10:56:24;;;;;;;18.52;13.10;;;10.70;99.90;;;;;;4973174;28;20038;-56
2021/04/10 10:58:58;;;;;;;18.80;14.20;;;10.70;99.90;;;;;;4992099;28;20018;-58
2021/04/10 11:01:25;;;;;;;;;;;10.70;99.90;;;;;;4993013;28;20096;-58
2021/04/10 11:03:55;;;;;;;16.95;13.18;;;10.60;99.90;;;;;;4991312;28;20382;-60
2021/04/10 11:06:27;;;;;;;23.70;15.60;;;10.80;99.90;;;;;;4989132;28;20026;-59
2021/04/10 11:08:54;;;;;;;20.92;14.48;;;10.90;99.90;;;;;;4991981;28;20109;-59
2021/04/10 11:11:22;;;;;;;19.45;15.45;;;10.90;99.90;;;;;;4999155;28;20030;-58
2021/04/10 11:13:49;;;;;;;19.02;15.00;;;10.90;99.90;;;;;;4993090;28;20566;-59
2021/04/10 11:16:16;;;;;;;19.13;14.75;;;10.80;99.90;;;;;;5000141;28;20820;-60
2021/04/10 11:18:42;;;;;;;22.15;15.82;;;10.80;99.90;;;;;;4992507;28;20042;-59
2021/04/10 11:21:13;;;;;;;19.50;14.10;;;10.80;99.90;;;;;;5001210;28;20384;-60
2021/04/10 11:24:06;;;;;;;20.58;13.98;;;10.70;99.90;;;;;;4995372;28;20488;-59
2021/04/10 11:26:45;;;;;;;22.05;16.42;;;10.50;99.90;;;;;;4987229;28;20026;-59
2021/04/10 11:29:27;;;;;;;16.55;13.45;;;10.40;99.90;;;;;;4987688;28;20022;-58
2021/04/10 11:32:06;;;;;;;19.42;13.32;;;10.40;99.90;;;;;;5004136;28;20445;-54
2021/04/10 11:34:33;;;;;;;20.88;15.65;;;10.30;99.90;;;;;;4984604;28;20088;-57
2021/04/10 11:37:00;;;;;;;24.42;18.27;;;10.30;99.90;;;;;;4993450;28;20062;-54
2021/04/10 11:39:26;;;;;;;20.55;16.13;;;10.30;99.90;;;;;;4997103;28;20052;-59
2021/04/10 11:41:52;;;;;;;21.88;14.48;;;10.40;99.90;;;;;;4994475;28;20030;-59
2021/04/10 11:44:19;;;;;;;30.98;22.23;;;10.50;99.90;;;;;;4996205;28;20034;-59
2021/04/10 11:46:45;;;;;;;20.42;14.75;;;10.50;99.90;;;;;;4998285;28;20415;-58
2021/04/10 11:49:24;;;;;;;18.10;12.95;;;10.60;99.90;;;;;;4997401;28;20050;-60
2021/04/10 11:51:50;;;;;;;18.83;13.85;;;10.60;99.90;;;;;;4999608;28;20034;-59
2021/04/10 11:54:33;;;;;;;24.00;13.95;;;10.70;99.90;;;;;;4997741;28;20037;-58
2021/04/10 11:56:59;;;;;;;18.08;13.95;;;10.80;99.90;;;;;;4991635;28;20022;-58
2021/04/10 11:59:36;;;;;;;24.13;13.55;;;10.80;99.90;;;;;;4996688;28;20570;-60
2021/04/10 12:02:03;;;;;;;18.83;13.50;;;10.90;99.90;;;;;;4999183;28;20096;-59
2021/04/10 12:04:31;;;;;;;25.75;15.30;;;10.90;99.90;;;;;;4997184;28;20491;-58
2021/04/10 12:07:11;;;;;;;23.63;15.15;;;10.90;99.90;;;;;;5002908;28;20030;-58
2021/04/10 12:09:41;;;;;;;19.13;14.70;;;10.80;99.90;;;;;;4992207;28;20026;-56
2021/04/10 12:12:12;;;;;;;21.27;14.18;;;11.00;99.90;;;;;;5003975;28;20439;-60
2021/04/10 12:14:41;;;;;;;22.42;14.70;;;11.20;99.90;;;;;;4989090;28;20073;-58
2021/04/10 12:17:06;;;;;;;18.45;12.93;;;11.20;99.90;;;;;;5000748;28;20034;-59
2021/04/10 12:19:33;;;;;;;19.30;14.35;;;11.40;99.90;;;;;;4990666;28;20045;-58
2021/04/10 12:21:59;;;;;;;19.17;14.95;;;11.60;99.90;;;;;;5000661;28;20026;-59
2021/04/10 12:24:25;;;;;;;16.05;12.10;;;11.80;99.90;;;;;;4991568;28;20073;-60
2021/04/10 12:26:50;;;;;;;17.90;13.73;;;12.00;99.90;;;;;;4961168;28;20038;-57
2021/04/10 12:29:16;;;;;;;19.83;14.02;;;12.00;99.90;;;;;;4982352;28;20487;-52
2021/04/10 12:31:42;;;;;;;21.27;16.48;;;12.00;99.90;;;;;;4992182;28;20510;-59
2021/04/10 12:34:08;;;;;;;20.70;14.40;;;11.90;99.90;;;;;;4991460;28;20022;-58
2021/04/10 12:36:34;;;;;;;58.30;39.55;;;11.70;99.90;;;;;;4992032;28;20488;-61
2021/04/10 12:39:01;;;;;;;23.33;15.65;;;11.60;99.90;;;;;;4993370;28;20150;-59
2021/04/10 12:41:27;;;;;;;20.88;14.60;;;11.40;99.90;;;;;;4987954;28;20027;-60
2021/04/10 12:43:52;;;;;;;23.80;16.75;;;11.30;99.90;;;;;;4983239;28;20048;-59